Terminal Aerodrome Forecast
Issued by NWS

Home | Current Version | Previous Version | Graphics & Text | Print | Product List | Glossary On
Versions: 1 2 3 4 5 6 7 8 9 10 11 12 13 14 15 16 17 18 19 20 21 22 23 24 25 26 27 28 29 30 31 32
000
FTUS43 KLOT 220500
TAFDPA
TAF
KDPA 220525Z 2206/2306 17007KT P6SM FEW250
     FM221400 20012G18KT P6SM BKN200
     FM221800 22016G23KT P6SM FEW045
     FM230000 24014G20KT P6SM VCTS BKN050CB PROB30 2301/2305 3SM
      TSRA OVC040CB
     FM230500 31010KT P6SM BKN040=

USA.gov is the U.S. government's official web portal to all federal, state and local government web resources and services.